Time;durP1;ratioP1;P1;durP2;ratioP2;P2;SDS_P1;SDS_P2;PMS_P1;PMS_P2;Temp;Humidity;BMP_temperature;BMP_pressure;BME280_temperature;BME280_humidity;BME280_pressure;Samples;Min_cycle;Max_cycle;Signal;HPM_P1;HPM_P2
2022/10/31 00:01:26;;;;;;;;;;;;;;;;;;5051470;28;1404;-76
2022/10/31 00:03:52;;;;;;;;;;;;;;;;;;5051799;28;1159;-77
2022/10/31 00:06:18;;;;;;;;;;;;;;;;;;5033890;28;1902;-77
2022/10/31 00:08:46;;;;;;;;;;;;;;;;;;5034042;28;1157;-77
2022/10/31 00:11:12;;;;;;;;;;;;;;;;;;5033505;28;1326;-78
2022/10/31 00:13:39;;;;;;;;;;;;;;;;;;5051407;28;1170;-79
2022/10/31 00:16:06;;;;;;;;;;;;;;;;;;5034331;28;1096;-77
2022/10/31 00:18:32;;;;;;;;;;;;;;;;;;5051618;28;1075;-76
2022/10/31 00:21:01;;;;;;;;;;;;;;;;;;5033604;28;1326;-75
2022/10/31 00:23:28;;;;;;;;;;;;;;;;;;5033523;28;1197;-76
2022/10/31 00:26:00;;;;;;;;;;;;;;;;;;5051943;28;1906;-77
2022/10/31 00:28:26;;;;;;;;;;;;;;;;;;5034054;28;1100;-78
2022/10/31 00:30:52;;;;;;;;;;;;;;;;;;5051103;28;1306;-78
2022/10/31 00:33:19;;;;;;;;;;;;;;;;;;5033136;28;1314;-77
2022/10/31 00:35:49;;;;;;;;;;;;;;;;;;5033804;28;1179;-78
2022/10/31 00:38:16;;;;;;;;;;;;;;;;;;5033698;28;1264;-77
2022/10/31 00:40:42;;;;;;;;;;;;;;;;;;5033307;28;1501;-78
2022/10/31 00:43:10;;;;;;;;;;;;;;;;;;5033141;28;1044;-78
2022/10/31 00:45:37;;;;;;;;;;;;;;;;;;5051967;28;861;-78
2022/10/31 00:48:03;;;;;;;;;;;;;;;;;;5036057;28;1907;-77
2022/10/31 00:50:30;;;;;;;;;;;;;;;;;;5055784;28;1301;-79
2022/10/31 00:52:57;;;;;;;;;;;;;;;;;;5039378;28;1378;-76
2022/10/31 00:55:24;;;;;;;;;;;;;;;;;;5057012;28;1096;-77
2022/10/31 00:57:51;;;;;;;;;;;;;;;;;;5038293;28;1604;-77
2022/10/31 01:00:19;;;;;;;;;;;;;;;;;;5037380;28;1302;-78
2022/10/31 01:02:46;;;;;;;;;;;;;;;;;;5036379;28;1506;-76
2022/10/31 01:05:12;;;;;;;;;;;;;;;;;;5037253;28;1612;-77
2022/10/31 01:07:38;;;;;;;;;;;;;;;;;;5036984;28;1919;-78
2022/10/31 01:10:08;;;;;;;;;;;;;;;;;;5036545;28;1390;-77
2022/10/31 01:12:36;;;;;;;;;;;;;;;;;;5036835;28;1744;-77
2022/10/31 01:15:03;;;;;;;;;;;;;;;;;;5036943;28;1436;-76
2022/10/31 01:17:30;;;;;;;;;;;;;;;;;;5036909;28;1195;-78
2022/10/31 01:19:56;;;;;;;;;;;;;;;;;;5055333;28;1289;-76
2022/10/31 01:22:26;;;;;;;;;;;;;;;;;;5036866;28;1224;-78
2022/10/31 01:24:52;;;;;;;;;;;;;;;;;;5054548;28;1048;-79
2022/10/31 01:27:19;;;;;;;;;;;;;;;;;;5036644;28;1977;-78
2022/10/31 01:29:46;;;;;;;;;;;;;;;;;;5054492;28;1372;-78
2022/10/31 01:32:12;;;;;;;;;;;;;;;;;;5036035;28;1308;-78
2022/10/31 01:34:39;;;;;;;;;;;;;;;;;;5036518;28;1370;-78
2022/10/31 01:37:06;;;;;;;;;;;;;;;;;;5036411;28;1220;-78
2022/10/31 01:39:32;;;;;;;;;;;;;;;;;;5036708;28;1341;-79
2022/10/31 01:41:58;;;;;;;;;;;;;;;;;;5035624;28;1120;-77
2022/10/31 01:44:43;;;;;;;;;;;;;;;;;;5036101;28;1293;-78
2022/10/31 01:47:12;;;;;;;;;;;;;;;;;;5054338;28;1906;-78
2022/10/31 01:49:40;;;;;;;;;;;;;;;;;;5053991;28;1363;-78
2022/10/31 01:52:07;;;;;;;;;;;;;;;;;;5053257;28;1038;-78
2022/10/31 01:54:34;;;;;;;;;;;;;;;;;;5036214;28;1272;-77
2022/10/31 01:57:00;;;;;;;;;;;;;;;;;;5036486;28;1166;-78
2022/10/31 01:59:27;;;;;;;;;;;;;;;;;;5053821;28;1345;-78
2022/10/31 02:01:53;;;;;;;;;;;;;;;;;;5052882;28;1064;-79
2022/10/31 02:04:20;;;;;;;;;;;;;;;;;;5036006;28;1142;-78
2022/10/31 02:06:50;;;;;;;;;;;;;;;;;;5035984;28;1962;-78
2022/10/31 02:09:18;;;;;;;;;;;;;;;;;;5036212;28;1553;-79
2022/10/31 02:11:44;;;;;;;;;;;;;;;;;;5035379;28;1397;-78
2022/10/31 02:14:11;;;;;;;;;;;;;;;;;;5053647;28;798;-77
2022/10/31 02:16:37;;;;;;;;;;;;;;;;;;5053898;28;857;-77
2022/10/31 02:19:03;;;;;;;;;;;;;;;;;;5035675;28;1155;-77
2022/10/31 02:21:31;;;;;;;;;;;;;;;;;;5035005;28;1413;-78
2022/10/31 02:24:06;;;;;;;;;;;;;;;;;;5035418;28;1189;-77
2022/10/31 02:26:54;;;;;;;;;;;;;;;;;;5035714;28;1910;-78
2022/10/31 02:29:29;;;;;;;;;;;;;;;;;;5035674;28;1380;-78
2022/10/31 02:31:59;;;;;;;;;;;;;;;;;;5034684;28;1217;-77
2022/10/31 02:34:26;;;;;;;;;;;;;;;;;;5053194;28;1115;-78
2022/10/31 02:36:53;;;;;;;;;;;;;;;;;;5035159;28;1254;-78
2022/10/31 02:39:19;;;;;;;;;;;;;;;;;;5035536;28;1147;-77
2022/10/31 02:41:47;;;;;;;;;;;;;;;;;;5034469;28;1115;-79
2022/10/31 02:44:16;;;;;;;;;;;;;;;;;;5035341;28;1250;-77
2022/10/31 02:46:44;;;;;;;;;;;;;;;;;;5035218;28;1910;-77
2022/10/31 02:49:14;;;;;;;;;;;;;;;;;;5036195;28;1415;-77
2022/10/31 02:54:31;;;;;;;;;;;;;;;;;;4936343;29;1534;-76
2022/10/31 02:56:59;;;;;;;;;;;;;;;;;;4947569;29;1459;-75
2022/10/31 02:59:25;;;;;;;;;;;;;;;;;;4933019;29;728;-75
2022/10/31 03:01:57;;;;;;;;;;;;;;;;;;4946453;29;1353;-72
2022/10/31 03:04:39;;;;;;;;;;;;;;;;;;4931451;29;1476;-74
2022/10/31 03:07:09;;;;;;;;;;;;;;;;;;4933160;29;1914;-74
2022/10/31 03:09:38;;;;;;;;;;;;;;;;;;4931694;29;1107;-74
2022/10/31 03:12:05;;;;;;;;;;;;;;;;;;4930217;29;1352;-74
2022/10/31 03:14:33;;;;;;;;;;;;;;;;;;4931581;29;2018;-75
2022/10/31 03:17:00;;;;;;;;;;;;;;;;;;4963229;28;1403;-73
2022/10/31 03:19:27;;;;;;;;;;;;;;;;;;4930247;29;2157;-75
2022/10/31 03:21:55;;;;;;;;;;;;;;;;;;4930035;29;1310;-75
2022/10/31 03:24:22;;;;;;;;;;;;;;;;;;4932553;29;957;-74
2022/10/31 03:26:49;;;;;;;;;;;;;;;;;;4930808;29;1899;-75
2022/10/31 03:29:16;;;;;;;;;;;;;;;;;;4931121;29;1333;-75
2022/10/31 03:31:44;;;;;;;;;;;;;;;;;;4930224;29;1522;-75
2022/10/31 03:34:13;;;;;;;;;;;;;;;;;;4931106;29;1093;-75
2022/10/31 03:36:39;;;;;;;;;;;;;;;;;;4931050;29;1550;-75
2022/10/31 03:39:07;;;;;;;;;;;;;;;;;;4931035;29;960;-75
2022/10/31 03:41:35;;;;;;;;;;;;;;;;;;4929867;29;1275;-75
2022/10/31 03:44:01;;;;;;;;;;;;;;;;;;4930248;29;1185;-73
2022/10/31 03:46:28;;;;;;;;;;;;;;;;;;4931163;29;1164;-75
2022/10/31 03:48:56;;;;;;;;;;;;;;;;;;4930807;29;1907;-75
2022/10/31 03:51:23;;;;;;;;;;;;;;;;;;4929945;29;1432;-72
2022/10/31 03:53:52;;;;;;;;;;;;;;;;;;4929878;29;1458;-74
2022/10/31 03:56:23;;;;;;;;;;;;;;;;;;4929194;29;1172;-75
2022/10/31 03:58:53;;;;;;;;;;;;;;;;;;4929021;29;1544;-74
2022/10/31 04:01:19;;;;;;;;;;;;;;;;;;4929699;29;1354;-73
2022/10/31 04:03:46;;;;;;;;;;;;;;;;;;4930707;29;1444;-75
2022/10/31 04:06:14;;;;;;;;;;;;;;;;;;4930760;29;1220;-74
2022/10/31 04:08:41;;;;;;;;;;;;;;;;;;4930915;29;1981;-74
2022/10/31 04:11:08;;;;;;;;;;;;;;;;;;4930445;29;1397;-73
2022/10/31 04:13:41;;;;;;;;;;;;;;;;;;4931815;29;1410;-75
2022/10/31 04:16:13;;;;;;;;;;;;;;;;;;4930707;29;1904;-74
2022/10/31 04:18:41;;;;;;;;;;;;;;;;;;4931601;29;905;-75
2022/10/31 04:21:07;;;;;;;;;;;;;;;;;;4929966;29;1126;-75
2022/10/31 04:23:34;;;;;;;;;;;;;;;;;;4932250;29;1246;-75
2022/10/31 04:26:06;;;;;;;;;;;;;;;;;;4933839;29;1174;-75
2022/10/31 04:28:33;;;;;;;;;;;;;;;;;;4933849;29;1913;-75
2022/10/31 04:31:01;;;;;;;;;;;;;;;;;;4935060;29;767;-74
2022/10/31 04:33:28;;;;;;;;;;;;;;;;;;4932949;29;1455;-74
2022/10/31 04:35:55;;;;;;;;;;;;;;;;;;4934574;29;783;-74
2022/10/31 04:38:21;;;;;;;;;;;;;;;;;;4933760;29;1145;-74
2022/10/31 04:40:49;;;;;;;;;;;;;;;;;;4933525;29;1283;-72
2022/10/31 04:43:34;;;;;;;;;;;;;;;;;;4934308;29;1440;-74
2022/10/31 04:46:02;;;;;;;;;;;;;;;;;;4933305;29;1168;-73
2022/10/31 04:48:28;;;;;;;;;;;;;;;;;;4933227;29;1923;-74
2022/10/31 04:50:58;;;;;;;;;;;;;;;;;;4932764;29;1418;-72
2022/10/31 04:53:25;;;;;;;;;;;;;;;;;;4932715;29;1319;-73
2022/10/31 04:56:11;;;;;;;;;;;;;;;;;;4916452;29;1396;-72
2022/10/31 04:58:42;;;;;;;;;;;;;;;;;;4850074;29;1412;-73
2022/10/31 05:01:12;;;;;;;;;;;;;;;;;;4857019;29;1324;-72
2022/10/31 05:03:39;;;;;;;;;;;;;;;;;;4858887;29;1314;-72
2022/10/31 05:06:06;;;;;;;;;;;;;;;;;;4874007;28;1646;-73
2022/10/31 05:08:32;;;;;;;;;;;;;;;;;;4847979;29;1951;-75
2022/10/31 05:11:02;;;;;;;;;;;;;;;;;;4856363;29;934;-75
2022/10/31 05:13:29;;;;;;;;;;;;;;;;;;4860251;29;1444;-73
2022/10/31 05:16:32;;;;;;;;;;;;;;;;;;4863026;29;1034;-72
2022/10/31 05:19:22;;;;;;;;;;;;;;;;;;4865038;29;883;-73
2022/10/31 05:22:06;;;;;;;;;;;;;;;;;;4896008;29;1420;-73
2022/10/31 05:24:33;;;;;;;;;;;;;;;;;;4841409;29;955;-73
2022/10/31 05:27:00;;;;;;;;;;;;;;;;;;4842860;28;895;-74
2022/10/31 05:29:26;;;;;;;;;;;;;;;;;;4954969;28;1937;-75
2022/10/31 05:31:53;;;;;;;;;;;;;;;;;;4925229;29;1476;-75
2022/10/31 05:34:40;;;;;;;;;;;;;;;;;;4914924;29;1011;-75
2022/10/31 05:37:24;;;;;;;;;;;;;;;;;;4948985;28;2021;-73
2022/10/31 05:39:50;;;;;;;;;;;;;;;;;;4952749;28;2032;-73
2022/10/31 05:42:17;;;;;;;;;;;;;;;;;;4950565;28;1770;-75
2022/10/31 05:44:43;;;;;;;;;;;;;;;;;;4932790;29;1270;-74
2022/10/31 05:47:31;;;;;;;;;;;;;;;;;;4932726;29;1931;-74
2022/10/31 05:50:21;;;;;;;;;;;;;;;;;;4918160;28;1078;-74
2022/10/31 05:52:54;;;;;;;;;;;;;;;;;;4931619;29;1393;-73
2022/10/31 05:55:30;;;;;;;;;;;;;;;;;;4932904;29;1363;-72
2022/10/31 05:58:10;;;;;;;;;;;;;;;;;;4928791;29;1620;-74
2022/10/31 06:00:38;;;;;;;;;;;;;;;;;;4945199;29;1364;-74
2022/10/31 06:03:09;;;;;;;;;;;;;;;;;;4931368;29;1409;-71
2022/10/31 06:05:45;;;;;;;;;;;;;;;;;;4951636;28;1510;-73
2022/10/31 06:08:13;;;;;;;;;;;;;;;;;;4930306;29;1906;-73
2022/10/31 06:10:40;;;;;;;;;;;;;;;;;;4953042;28;1393;-74
2022/10/31 06:13:07;;;;;;;;;;;;;;;;;;4930853;29;1400;-74
2022/10/31 06:15:41;;;;;;;;;;;;;;;;;;4947957;28;1560;-72
2022/10/31 06:18:09;;;;;;;;;;;;;;;;;;4932213;29;1597;-74
2022/10/31 06:20:45;;;;;;;;;;;;;;;;;;4923822;29;1466;-71
2022/10/31 06:23:11;;;;;;;;;;;;;;;;;;4913452;29;1393;-73
2022/10/31 06:25:40;;;;;;;;;;;;;;;;;;4944463;28;1640;-75
2022/10/31 06:28:06;;;;;;;;;;;;;;;;;;4930781;29;1968;-75
2022/10/31 06:30:58;;;;;;;;;;;;;;;;;;4926638;29;1657;-73
2022/10/31 06:33:27;;;;;;;;;;;;;;;;;;4930556;29;1425;-75
2022/10/31 06:36:00;;;;;;;;;;;;;;;;;;4924045;29;1478;-75
2022/10/31 06:38:26;;;;;;;;;;;;;;;;;;4931328;29;1277;-74
2022/10/31 06:40:53;;;;;;;;;;;;;;;;;;4926889;29;1688;-75
2022/10/31 06:43:21;;;;;;;;;;;;;;;;;;4950898;28;1388;-75
2022/10/31 06:45:49;;;;;;;;;;;;;;;;;;4943785;28;1433;-73
2022/10/31 06:48:24;;;;;;;;;;;;;;;;;;4930692;29;1903;-75
2022/10/31 06:51:16;;;;;;;;;;;;;;;;;;4928225;29;1412;-72
2022/10/31 06:53:42;;;;;;;;;;;;;;;;;;4952476;28;1307;-74
2022/10/31 06:56:11;;;;;;;;;;;;;;;;;;4947560;29;1154;-74
2022/10/31 06:58:42;;;;;;;;;;;;;;;;;;4936684;29;1533;-74
2022/10/31 07:01:11;;;;;;;;;;;;;;;;;;4930468;29;1391;-72
2022/10/31 07:03:37;;;;;;;;;;;;;;;;;;4934360;28;1511;-75
2022/10/31 07:06:03;;;;;;;;;;;;;;;;;;4934146;28;1431;-73
2022/10/31 07:08:31;;;;;;;;;;;;;;;;;;4931236;29;1965;-75
2022/10/31 07:10:58;;;;;;;;;;;;;;;;;;4927464;29;1411;-74
2022/10/31 07:13:28;;;;;;;;;;;;;;;;;;4934738;29;1388;-75
2022/10/31 07:16:06;;;;;;;;;;;;;;;;;;4929871;29;1517;-75
2022/10/31 07:18:34;;;;;;;;;;;;;;;;;;4930740;29;1507;-75
2022/10/31 07:21:00;;;;;;;;;;;;;;;;;;4944200;29;1334;-74
2022/10/31 07:23:26;;;;;;;;;;;;;;;;;;4931149;29;1306;-74
2022/10/31 07:26:17;;;;;;;;;;;;;;;;;;4931916;29;1371;-75
2022/10/31 07:28:46;;;;;;;;;;;;;;;;;;4948368;28;1915;-75
2022/10/31 07:31:13;;;;;;;;;;;;;;;;;;4973499;28;1327;-75
2022/10/31 07:33:40;;;;;;;;;;;;;;;;;;4961450;28;1809;-75
2022/10/31 07:36:41;;;;;;;;;;;;;;;;;;4928522;29;1434;-75
2022/10/31 07:39:07;;;;;;;;;;;;;;;;;;4930200;29;1327;-75
2022/10/31 07:41:36;;;;;;;;;;;;;;;;;;4926152;29;1286;-74
2022/10/31 07:44:02;;;;;;;;;;;;;;;;;;4930998;29;902;-74
2022/10/31 07:46:47;;;;;;;;;;;;;;;;;;4924278;29;1436;-74
2022/10/31 07:49:32;;;;;;;;;;;;;;;;;;4912936;29;1907;-74
2022/10/31 07:52:17;;;;;;;;;;;;;;;;;;4917698;29;1428;-75
2022/10/31 07:55:21;;;;;;;;;;;;;;;;;;4931802;29;1348;-74
2022/10/31 07:57:56;;;;;;;;;;;;;;;;;;4926918;29;1159;-74
2022/10/31 08:00:23;;;;;;;;;;;;;;;;;;4930174;29;1236;-74
2022/10/31 08:02:56;;;;;;;;;;;;;;;;;;4931773;29;1508;-74
2022/10/31 08:05:44;;;;;;;;;;;;;;;;;;4930474;29;1206;-74
2022/10/31 08:08:28;;;;;;;;;;;;;;;;;;4926748;29;1906;-73
2022/10/31 08:10:55;;;;;;;;;;;;;;;;;;4942142;29;1104;-74
2022/10/31 08:13:23;;;;;;;;;;;;;;;;;;4941579;28;1424;-74
2022/10/31 08:15:51;;;;;;;;;;;;;;;;;;4919799;29;1408;-73
2022/10/31 08:18:24;;;;;;;;;;;;;;;;;;4934763;29;1570;-72
2022/10/31 08:20:51;;;;;;;;;;;;;;;;;;4949058;29;1173;-73
2022/10/31 08:23:17;;;;;;;;;;;;;;;;;;4938338;29;1566;-73
2022/10/31 08:25:46;;;;;;;;;;;;;;;;;;4929434;29;1301;-74
2022/10/31 08:28:13;;;;;;;;;;;;;;;;;;4929375;29;1191;-74
2022/10/31 08:30:43;;;;;;;;;;;;;;;;;;4929262;29;1906;-73
2022/10/31 08:33:32;;;;;;;;;;;;;;;;;;4931779;29;1367;-75
2022/10/31 08:36:17;;;;;;;;;;;;;;;;;;4954007;28;1479;-74
2022/10/31 08:38:52;;;;;;;;;;;;;;;;;;4932601;28;1364;-74
2022/10/31 08:41:18;;;;;;;;;;;;;;;;;;4929174;29;1236;-73
2022/10/31 08:43:45;;;;;;;;;;;;;;;;;;4928965;29;1433;-74
2022/10/31 08:46:13;;;;;;;;;;;;;;;;;;4955221;28;1518;-74
2022/10/31 08:48:42;;;;;;;;;;;;;;;;;;4925113;28;1907;-74
2022/10/31 08:51:09;;;;;;;;;;;;;;;;;;4927532;29;1730;-75
2022/10/31 08:53:36;;;;;;;;;;;;;;;;;;4991298;23;3737;-75
2022/10/31 08:56:22;;;;;;;;;;;;;;;;;;5020664;28;1331;-76
2022/10/31 08:58:50;;;;;;;;;;;;;;;;;;5017625;28;1590;-76
2022/10/31 09:01:20;;;;;;;;;;;;;;;;;;5056045;28;1384;-78
2022/10/31 09:03:46;;;;;;;;;;;;;;;;;;5045475;28;1456;-76
2022/10/31 09:06:12;;;;;;;;;;;;;;;;;;5029449;28;1401;-76
2022/10/31 09:08:39;;;;;;;;;;;;;;;;;;5029924;28;1980;-76
2022/10/31 09:11:07;;;;;;;;;;;;;;;;;;5032301;28;1850;-76
2022/10/31 09:13:52;;;;;;;;;;;;;;;;;;5030431;28;1485;-76
2022/10/31 09:16:46;;;;;;;;;;;;;;;;;;5031474;28;1424;-75
2022/10/31 09:19:19;;;;;;;;;;;;;;;;;;5028838;28;1447;-76
2022/10/31 09:21:46;;;;;;;;;;;;;;;;;;5030099;28;1455;-76
2022/10/31 09:24:13;;;;;;;;;;;;;;;;;;5031735;28;1408;-77
2022/10/31 09:26:41;;;;;;;;;;;;;;;;;;5044565;28;1423;-78
2022/10/31 09:29:15;;;;;;;;;;;;;;;;;;5041583;28;1965;-76
2022/10/31 09:31:43;;;;;;;;;;;;;;;;;;5027735;28;1475;-77
2022/10/31 09:34:26;;;;;;;;;;;;;;;;;;5049494;28;1459;-76
2022/10/31 09:37:02;;;;;;;;;;;;;;;;;;5030235;28;1605;-76
2022/10/31 09:39:29;;;;;;;;;;;;;;;;;;5049959;28;1267;-75
2022/10/31 09:42:04;;;;;;;;;;;;;;;;;;5046716;28;1506;-74
2022/10/31 09:44:34;;;;;;;;;;;;;;;;;;5039203;28;1467;-76
2022/10/31 09:47:01;;;;;;;;;;;;;;;;;;5032349;28;1544;-74
2022/10/31 09:49:37;;;;;;;;;;;;;;;;;;5028668;28;1962;-74
2022/10/31 09:52:04;;;;;;;;;;;;;;;;;;5031964;28;1161;-75
2022/10/31 09:54:35;;;;;;;;;;;;;;;;;;5046981;28;1412;-73
2022/10/31 09:57:01;;;;;;;;;;;;;;;;;;5048654;28;1139;-74
2022/10/31 09:59:29;;;;;;;;;;;;;;;;;;5026700;28;1408;-75
2022/10/31 10:01:56;;;;;;;;;;;;;;;;;;5033151;28;1185;-75
2022/10/31 10:04:32;;;;;;;;;;;;;;;;;;5025337;28;1408;-75
2022/10/31 10:07:08;;;;;;;;;;;;;;;;;;5046407;28;1269;-76
2022/10/31 10:09:55;;;;;;;;;;;;;;;;;;5025138;28;1903;-75
2022/10/31 10:12:56;;;;;;;;;;;;;;;;;;5031063;28;1467;-76
2022/10/31 10:15:29;;;;;;;;;;;;;;;;;;5028893;28;1424;-75
2022/10/31 10:18:00;;;;;;;;;;;;;;;;;;5033323;28;807;-76
2022/10/31 10:20:29;;;;;;;;;;;;;;;;;;5025165;28;1408;-74
2022/10/31 10:22:58;;;;;;;;;;;;;;;;;;5026998;28;1415;-77
2022/10/31 10:25:25;;;;;;;;;;;;;;;;;;5039160;28;1458;-75
2022/10/31 10:27:54;;;;;;;;;;;;;;;;;;5029604;28;1364;-72
2022/10/31 10:30:21;;;;;;;;;;;;;;;;;;5030449;28;1907;-74
2022/10/31 10:32:48;;;;;;;;;;;;;;;;;;5031687;28;1302;-74
2022/10/31 10:35:18;;;;;;;;;;;;;;;;;;5033199;28;878;-74
2022/10/31 10:37:44;;;;;;;;;;;;;;;;;;5032513;28;945;-74
2022/10/31 10:40:14;;;;;;;;;;;;;;;;;;5027159;28;1408;-74
2022/10/31 10:48:11;;;;;;;;;;;;;;;;;;5030980;28;1181;-75
2022/10/31 10:50:38;;;;;;;;;;;;;;;;;;5025182;28;1902;-76
2022/10/31 10:53:07;;;;;;;;;;;;;;;;;;5030077;28;1458;-75
2022/10/31 10:55:37;;;;;;;;;;;;;;;;;;5028536;28;1578;-76
2022/10/31 10:58:04;;;;;;;;;;;;;;;;;;5023091;28;1692;-75
2022/10/31 11:00:31;;;;;;;;;;;;;;;;;;5029938;28;1424;-75
2022/10/31 11:02:57;;;;;;;;;;;;;;;;;;5031418;28;1471;-74
2022/10/31 11:05:29;;;;;;;;;;;;;;;;;;5029053;28;1669;-75
2022/10/31 11:07:55;;;;;;;;;;;;;;;;;;5024315;28;1419;-75
2022/10/31 11:10:22;;;;;;;;;;;;;;;;;;5026392;28;1973;-76
2022/10/31 11:12:59;;;;;;;;;;;;;;;;;;5028684;28;1405;-75
2022/10/31 11:15:26;;;;;;;;;;;;;;;;;;5018411;28;1459;-76
2022/10/31 11:17:52;;;;;;;;;;;;;;;;;;5029096;28;1327;-77
2022/10/31 11:20:25;;;;;;;;;;;;;;;;;;5023940;28;1327;-76
2022/10/31 11:22:56;;;;;;;;;;;;;;;;;;5024081;28;1829;-77
2022/10/31 11:25:22;;;;;;;;;;;;;;;;;;5027987;28;1465;-76
2022/10/31 11:28:00;;;;;;;;;;;;;;;;;;5022742;28;1154;-75
2022/10/31 11:30:26;;;;;;;;;;;;;;;;;;5014862;28;1902;-76
2022/10/31 11:32:53;;;;;;;;;;;;;;;;;;5027252;28;1476;-75
2022/10/31 11:35:20;;;;;;;;;;;;;;;;;;5029789;28;1383;-79
2022/10/31 11:37:47;;;;;;;;;;;;;;;;;;5031686;28;1412;-78
2022/10/31 11:40:20;;;;;;;;;;;;;;;;;;5032664;28;1081;-76
2022/10/31 11:42:46;;;;;;;;;;;;;;;;;;5027638;28;1490;-77
2022/10/31 11:45:16;;;;;;;;;;;;;;;;;;5024336;28;1347;-77
2022/10/31 11:47:43;;;;;;;;;;;;;;;;;;5031533;28;1134;-76
2022/10/31 11:50:10;;;;;;;;;;;;;;;;;;5031682;28;1910;-75
2022/10/31 11:52:37;;;;;;;;;;;;;;;;;;5044324;28;1381;-75
2022/10/31 11:55:14;;;;;;;;;;;;;;;;;;5016878;28;1663;-74
2022/10/31 11:57:43;;;;;;;;;;;;;;;;;;5017906;28;1426;-76
2022/10/31 12:00:20;;;;;;;;;;;;;;;;;;5023506;28;1071;-75
2022/10/31 12:02:47;;;;;;;;;;;;;;;;;;5008960;28;1302;-76
2022/10/31 12:05:19;;;;;;;;;;;;;;;;;;5023460;28;1716;-76
2022/10/31 12:07:45;;;;;;;;;;;;;;;;;;5025690;28;1376;-76
2022/10/31 12:10:12;;;;;;;;;;;;;;;;;;5027296;28;1965;-77
2022/10/31 12:12:48;;;;;;;;;;;;;;;;;;5024103;28;1456;-77
2022/10/31 12:15:19;;;;;;;;;;;;;;;;;;5030429;28;1376;-75
2022/10/31 12:17:47;;;;;;;;;;;;;;;;;;5045429;28;1216;-77
2022/10/31 12:20:18;;;;;;;;;;;;;;;;;;5031023;28;1071;-76
2022/10/31 12:22:46;;;;;;;;;;;;;;;;;;5028910;28;1444;-75
2022/10/31 12:25:21;;;;;;;;;;;;;;;;;;5030968;28;1170;-77
2022/10/31 12:27:56;;;;;;;;;;;;;;;;;;5024951;28;1602;-76
2022/10/31 12:30:24;;;;;;;;;;;;;;;;;;5024806;28;1914;-78
2022/10/31 12:33:08;;;;;;;;;;;;;;;;;;5031522;28;1305;-78
2022/10/31 12:35:37;;;;;;;;;;;;;;;;;;5031227;28;934;-77
2022/10/31 12:38:11;;;;;;;;;;;;;;;;;;5025212;28;1388;-77
2022/10/31 12:40:48;;;;;;;;;;;;;;;;;;5027796;28;1400;-76
2022/10/31 12:43:19;;;;;;;;;;;;;;;;;;5028032;28;1388;-77
2022/10/31 12:45:50;;;;;;;;;;;;;;;;;;5030989;28;1637;-77
2022/10/31 12:48:19;;;;;;;;;;;;;;;;;;5032574;28;1364;-77
2022/10/31 12:50:51;;;;;;;;;;;;;;;;;;5032154;28;1937;-76
2022/10/31 12:53:20;;;;;;;;;;;;;;;;;;5032651;28;1373;-77
2022/10/31 12:55:49;;;;;;;;;;;;;;;;;;5030349;28;1411;-76
2022/10/31 12:58:25;;;;;;;;;;;;;;;;;;5032550;28;1146;-76
2022/10/31 13:00:56;;;;;;;;;;;;;;;;;;5033854;28;929;-77
2022/10/31 13:03:25;;;;;;;;;;;;;;;;;;5022134;28;1404;-75
2022/10/31 13:05:52;;;;;;;;;;;;;;;;;;4957949;28;1215;-80
2022/10/31 13:08:19;;;;;;;;;;;;;;;;;;4948162;28;961;-79
2022/10/31 13:10:49;;;;;;;;;;;;;;;;;;4949185;28;1943;-82
2022/10/31 13:13:17;;;;;;;;;;;;;;;;;;4957620;28;1388;-78
2022/10/31 13:15:46;;;;;;;;;;;;;;;;;;4954171;28;850;-80
2022/10/31 13:18:16;;;;;;;;;;;;;;;;;;4952434;28;878;-79
2022/10/31 13:20:44;;;;;;;;;;;;;;;;;;4954003;28;870;-80
2022/10/31 13:23:11;;;;;;;;;;;;;;;;;;4961906;28;1322;-80
2022/10/31 13:25:39;;;;;;;;;;;;;;;;;;4971244;28;906;-77
2022/10/31 13:28:06;;;;;;;;;;;;;;;;;;4971354;28;877;-79
2022/10/31 13:30:33;;;;;;;;;;;;;;;;;;4974055;28;2052;-77
2022/10/31 13:33:00;;;;;;;;;;;;;;;;;;4967782;28;1345;-78
2022/10/31 13:35:30;;;;;;;;;;;;;;;;;;4976147;28;886;-80
2022/10/31 13:38:00;;;;;;;;;;;;;;;;;;4974130;28;984;-80
2022/10/31 13:40:31;;;;;;;;;;;;;;;;;;4956717;28;929;-80
2022/10/31 13:42:58;;;;;;;;;;;;;;;;;;4956523;28;1381;-79
2022/10/31 13:45:25;;;;;;;;;;;;;;;;;;4955844;28;878;-76
2022/10/31 13:48:01;;;;;;;;;;;;;;;;;;4955692;28;743;-78
2022/10/31 13:50:29;;;;;;;;;;;;;;;;;;4955224;28;2005;-78
2022/10/31 13:53:12;;;;;;;;;;;;;;;;;;4962379;28;1488;-79
2022/10/31 13:55:40;;;;;;;;;;;;;;;;;;4976517;28;917;-78
2022/10/31 13:58:19;;;;;;;;;;;;;;;;;;4973152;28;894;-78
2022/10/31 14:00:45;;;;;;;;;;;;;;;;;;4972897;28;1027;-79
2022/10/31 14:03:18;;;;;;;;;;;;;;;;;;4973265;28;1306;-78
2022/10/31 14:05:52;;;;;;;;;;;;;;;;;;4974582;28;1252;-79
2022/10/31 14:08:22;;;;;;;;;;;;;;;;;;4978351;28;954;-80
2022/10/31 14:10:50;;;;;;;;;;;;;;;;;;4980681;28;1938;-80
2022/10/31 14:13:19;;;;;;;;;;;;;;;;;;4975104;28;1304;-78
2022/10/31 14:15:52;;;;;;;;;;;;;;;;;;4974170;28;1230;-79
2022/10/31 14:18:21;;;;;;;;;;;;;;;;;;4976722;28;893;-79
2022/10/31 14:20:49;;;;;;;;;;;;;;;;;;4974956;28;1455;-79
2022/10/31 14:23:34;;;;;;;;;;;;;;;;;;4974983;28;1361;-79
2022/10/31 14:26:08;;;;;;;;;;;;;;;;;;4970554;28;1144;-79
2022/10/31 14:28:35;;;;;;;;;;;;;;;;;;4971321;28;1119;-78
2022/10/31 14:31:02;;;;;;;;;;;;;;;;;;4975350;28;2311;-82
2022/10/31 14:33:29;;;;;;;;;;;;;;;;;;4967272;28;1241;-78
2022/10/31 14:36:04;;;;;;;;;;;;;;;;;;4969657;28;893;-78
2022/10/31 14:38:35;;;;;;;;;;;;;;;;;;4970725;28;1015;-77
2022/10/31 14:41:14;;;;;;;;;;;;;;;;;;4969644;28;838;-78
2022/10/31 14:43:44;;;;;;;;;;;;;;;;;;4966645;28;1341;-79
2022/10/31 14:46:13;;;;;;;;;;;;;;;;;;4965191;28;1011;-79
2022/10/31 14:48:59;;;;;;;;;;;;;;;;;;4962723;28;913;-78
2022/10/31 14:51:27;;;;;;;;;;;;;;;;;;4962151;28;1938;-79
2022/10/31 14:53:54;;;;;;;;;;;;;;;;;;4963941;28;1358;-79
2022/10/31 14:56:23;;;;;;;;;;;;;;;;;;4951728;28;1133;-77
2022/10/31 14:58:52;;;;;;;;;;;;;;;;;;4945908;28;1628;-78
2022/10/31 15:01:22;;;;;;;;;;;;;;;;;;4989442;22;2051;-77
2022/10/31 15:03:49;;;;;;;;;;;;;;;;;;4985835;28;1383;-74
2022/10/31 15:06:17;;;;;;;;;;;;;;;;;;5012700;28;1292;-76
2022/10/31 15:08:46;;;;;;;;;;;;;;;;;;5019135;28;1821;-78
2022/10/31 15:11:13;;;;;;;;;;;;;;;;;;4992832;28;2003;-76
2022/10/31 15:13:44;;;;;;;;;;;;;;;;;;4994655;28;1426;-75
2022/10/31 15:16:11;;;;;;;;;;;;;;;;;;5011676;28;878;-76
2022/10/31 15:18:38;;;;;;;;;;;;;;;;;;5014699;28;861;-75
2022/10/31 15:21:04;;;;;;;;;;;;;;;;;;4993655;28;1584;-75
2022/10/31 15:23:31;;;;;;;;;;;;;;;;;;5012159;28;1122;-74
2022/10/31 15:26:02;;;;;;;;;;;;;;;;;;4993617;28;1175;-74
2022/10/31 15:28:30;;;;;;;;;;;;;;;;;;5015163;28;1068;-74
2022/10/31 15:30:57;;;;;;;;;;;;;;;;;;5011652;28;2009;-74
2022/10/31 15:33:25;;;;;;;;;;;;;;;;;;5012515;28;866;-72
2022/10/31 15:35:55;;;;;;;;;;;;;;;;;;4996477;28;1712;-75
2022/10/31 15:38:22;;;;;;;;;;;;;;;;;;4995575;28;1336;-76
2022/10/31 15:40:52;;;;;;;;;;;;;;;;;;5011801;28;1297;-76
2022/10/31 15:43:20;;;;;;;;;;;;;;;;;;5012760;28;1152;-77
2022/10/31 15:45:46;;;;;;;;;;;;;;;;;;4994353;28;1201;-76
2022/10/31 15:48:16;;;;;;;;;;;;;;;;;;5014444;28;916;-74
2022/10/31 15:50:47;;;;;;;;;;;;;;;;;;5007830;28;2003;-74
2022/10/31 15:53:16;;;;;;;;;;;;;;;;;;5012234;28;956;-75
2022/10/31 15:55:46;;;;;;;;;;;;;;;;;;5001794;28;941;-76
2022/10/31 15:58:13;;;;;;;;;;;;;;;;;;5005031;28;968;-76
2022/10/31 16:00:41;;;;;;;;;;;;;;;;;;5010312;28;1266;-75
2022/10/31 16:03:09;;;;;;;;;;;;;;;;;;5012372;28;1038;-76
2022/10/31 16:05:37;;;;;;;;;;;;;;;;;;4992628;28;1170;-76
2022/10/31 16:08:04;;;;;;;;;;;;;;;;;;5011636;28;920;-74
2022/10/31 16:10:33;;;;;;;;;;;;;;;;;;4993731;28;1384;-76
2022/10/31 16:12:59;;;;;;;;;;;;;;;;;;5007523;28;2023;-76
2022/10/31 16:15:26;;;;;;;;;;;;;;;;;;5005630;28;893;-77
2022/10/31 16:17:53;;;;;;;;;;;;;;;;;;5013478;28;759;-75
2022/10/31 16:20:21;;;;;;;;;;;;;;;;;;5015147;28;1294;-78
2022/10/31 16:22:49;;;;;;;;;;;;;;;;;;5015354;28;941;-75
2022/10/31 16:25:16;;;;;;;;;;;;;;;;;;5017212;28;854;-75
2022/10/31 16:27:48;;;;;;;;;;;;;;;;;;5013940;28;897;-77
2022/10/31 16:30:31;;;;;;;;;;;;;;;;;;5004225;28;1090;-76
2022/10/31 16:33:00;;;;;;;;;;;;;;;;;;4988915;28;1987;-75
2022/10/31 16:35:27;;;;;;;;;;;;;;;;;;5006800;28;1367;-75
2022/10/31 16:37:54;;;;;;;;;;;;;;;;;;4974660;28;1543;-74
2022/10/31 16:40:21;;;;;;;;;;;;;;;;;;5010335;28;1357;-77
2022/10/31 16:42:48;;;;;;;;;;;;;;;;;;4999601;28;969;-76
2022/10/31 16:45:16;;;;;;;;;;;;;;;;;;5014838;28;822;-77
2022/10/31 16:47:42;;;;;;;;;;;;;;;;;;5011458;28;893;-76
2022/10/31 16:50:14;;;;;;;;;;;;;;;;;;5002647;28;1656;-76
2022/10/31 16:52:42;;;;;;;;;;;;;;;;;;5012941;28;2008;-75
2022/10/31 16:55:11;;;;;;;;;;;;;;;;;;5015908;28;971;-75
2022/10/31 16:57:37;;;;;;;;;;;;;;;;;;5003061;28;950;-75
2022/10/31 17:00:04;;;;;;;;;;;;;;;;;;5012791;28;1509;-75
2022/10/31 17:02:31;;;;;;;;;;;;;;;;;;5008739;28;1369;-75
2022/10/31 17:04:57;;;;;;;;;;;;;;;;;;4993201;28;1254;-77
2022/10/31 17:07:25;;;;;;;;;;;;;;;;;;4979997;28;1245;-76
2022/10/31 17:09:51;;;;;;;;;;;;;;;;;;4987039;28;1137;-77
2022/10/31 17:12:19;;;;;;;;;;;;;;;;;;5008212;28;1962;-77
2022/10/31 17:14:45;;;;;;;;;;;;;;;;;;4979002;28;1222;-77
2022/10/31 17:17:12;;;;;;;;;;;;;;;;;;4990416;28;940;-77
2022/10/31 17:19:38;;;;;;;;;;;;;;;;;;4997759;28;1547;-76
2022/10/31 17:22:05;;;;;;;;;;;;;;;;;;4990000;28;1360;-77
2022/10/31 17:24:33;;;;;;;;;;;;;;;;;;4996168;28;838;-75
2022/10/31 17:26:59;;;;;;;;;;;;;;;;;;5007034;28;1398;-75
2022/10/31 17:29:26;;;;;;;;;;;;;;;;;;5008106;28;908;-73
2022/10/31 17:31:52;;;;;;;;;;;;;;;;;;5007034;28;2344;-74
2022/10/31 17:34:19;;;;;;;;;;;;;;;;;;5009762;28;918;-74